Weather at Wells Fargo Plaza Helipad

Public forecast

Using degrees Fahrenheit for public forecast. Weather courtesy of forecast.io.

Closest aviation weather report (METAR) to Wells Fargo Plaza Helipad

Closest report is San Diego International Airport, 1.8 nm (3.3 km) WNW.

2024/05/20 01:51 (retrieved 49 minutes ago)

KSAN 200151Z 28006KT 10SM FEW024 17/11 A3001 RMK AO2 SLP161 T01720106

Closest aviation forecast (TAF) to Wells Fargo Plaza Helipad

Forecast is more than 12 hours old.

Closest forecast is North Island Naval Air Station-Halsey Field, 3.0 nm (5.5 km) WSW.

2024/05/18 20:26 Ammendment (retrieved 1 day ago)

TAF AMD KNZY 1820/1915 27009KT 9999 FEW025 QNH2997INS TEMPO 1822/1904 9999 SCT020 BKN033 FM190600 VRB06KT 9999 SCT010 BKN020 QNH3000INS TX18/1822Z TN14/1912Z AMD 2009 FS30190